Auburn, Washington
Current Conditions -  °F | °C
As of 7:53 AM on Friday 24 Oct 2014 (Local Time) from KSEA Reporting Station
Overcast Overcast  
Wind Chill: 48°   Ceiling: 24000
Heat Index: 48°   Visibility: 10mi
Dew Point: 43°   Wind: 0mph
Humidity: 83%   Direction: NA
Pressure: 30.05"   Gusts: NA
Location:  47.31°N, 122.23°W
Report Text: KSEA 241453Z 00000KT 10SM FEW028 SCT120 OVC240 09/06 A3005 RMK AO2 SLP182 T00890061 53003
Loading
Personal Weather Stations






























Interactive Weather Map
Tropical Storm Tracking
New forecast layout! Learn more

10-Day Weather Forecast

Advertisements
Track Severe Weather on mobile